sensor_id;sensor_type;location;lat;lon;timestamp;temperature;humidity
42187;DHT22;27858;51.414;0.018;2023-02-26T00:00:09;4.00;99.90
42187;DHT22;27858;51.414;0.018;2023-02-26T00:02:41;3.90;99.90
42187;DHT22;27858;51.414;0.018;2023-02-26T00:05:09;4.00;99.90
42187;DHT22;27858;51.414;0.018;2023-02-26T00:07:36;3.90;99.90
42187;DHT22;27858;51.414;0.018;2023-02-26T00:10:08;3.80;99.90
42187;DHT22;27858;51.414;0.018;2023-02-26T00:12:36;3.80;99.90
42187;DHT22;27858;51.414;0.018;2023-02-26T00:15:04;3.90;99.90
42187;DHT22;27858;51.414;0.018;2023-02-26T00:20:04;3.70;99.90
42187;DHT22;27858;51.414;0.018;2023-02-26T00:22:31;3.80;99.90
42187;DHT22;27858;51.414;0.018;2023-02-26T00:24:58;3.70;99.90
42187;DHT22;27858;51.414;0.018;2023-02-26T00:27:24;3.80;99.90
42187;DHT22;27858;51.414;0.018;2023-02-26T00:29:51;3.70;99.90
42187;DHT22;27858;51.414;0.018;2023-02-26T00:32:19;3.70;99.90
42187;DHT22;27858;51.414;0.018;2023-02-26T00:34:46;3.70;99.90
42187;DHT22;27858;51.414;0.018;2023-02-26T00:42:34;3.50;99.90
42187;DHT22;27858;51.414;0.018;2023-02-26T00:45:02;3.50;99.90
42187;DHT22;27858;51.414;0.018;2023-02-26T00:47:52;3.50;99.90
42187;DHT22;27858;51.414;0.018;2023-02-26T00:50:23;3.50;99.90
42187;DHT22;27858;51.414;0.018;2023-02-26T00:55:20;3.50;99.90
42187;DHT22;27858;51.414;0.018;2023-02-26T00:57:47;3.40;99.90
42187;DHT22;27858;51.414;0.018;2023-02-26T01:00:14;3.50;99.90
42187;DHT22;27858;51.414;0.018;2023-02-26T01:02:42;3.70;99.90
42187;DHT22;27858;51.414;0.018;2023-02-26T01:05:09;3.50;99.90
42187;DHT22;27858;51.414;0.018;2023-02-26T01:10:45;3.40;99.90
42187;DHT22;27858;51.414;0.018;2023-02-26T01:13:12;3.50;99.90
42187;DHT22;27858;51.414;0.018;2023-02-26T01:15:43;3.40;99.90
42187;DHT22;27858;51.414;0.018;2023-02-26T01:18:43;3.50;99.90
42187;DHT22;27858;51.414;0.018;2023-02-26T01:21:16;3.50;99.90
42187;DHT22;27858;51.414;0.018;2023-02-26T01:23:48;3.40;99.90
42187;DHT22;27858;51.414;0.018;2023-02-26T01:26:26;3.50;99.90
42187;DHT22;27858;51.414;0.018;2023-02-26T01:28:54;3.30;99.90
42187;DHT22;27858;51.414;0.018;2023-02-26T01:34:17;3.20;99.90
42187;DHT22;27858;51.414;0.018;2023-02-26T01:36:52;3.40;99.90
42187;DHT22;27858;51.414;0.018;2023-02-26T01:39:34;3.30;99.90
42187;DHT22;27858;51.414;0.018;2023-02-26T01:42:19;3.10;99.90
42187;DHT22;27858;51.414;0.018;2023-02-26T01:44:59;3.30;99.90
42187;DHT22;27858;51.414;0.018;2023-02-26T01:47:32;3.20;99.90
42187;DHT22;27858;51.414;0.018;2023-02-26T01:50:14;3.10;99.90
42187;DHT22;27858;51.414;0.018;2023-02-26T01:55:20;3.20;99.90
42187;DHT22;27858;51.414;0.018;2023-02-26T01:57:48;3.20;99.90
42187;DHT22;27858;51.414;0.018;2023-02-26T02:00:16;3.10;99.90
42187;DHT22;27858;51.414;0.018;2023-02-26T02:02:44;3.10;99.90
42187;DHT22;27858;51.414;0.018;2023-02-26T02:05:23;3.20;99.90
42187;DHT22;27858;51.414;0.018;2023-02-26T02:07:52;3.00;99.90
42187;DHT22;27858;51.414;0.018;2023-02-26T02:10:19;3.00;99.90
42187;DHT22;27858;51.414;0.018;2023-02-26T02:13:02;3.10;99.90
42187;DHT22;27858;51.414;0.018;2023-02-26T02:18:07;2.90;99.90
42187;DHT22;27858;51.414;0.018;2023-02-26T02:21:14;3.00;99.90
42187;DHT22;27858;51.414;0.018;2023-02-26T02:24:10;3.00;99.90
42187;DHT22;27858;51.414;0.018;2023-02-26T02:32:07;3.00;99.90
42187;DHT22;27858;51.414;0.018;2023-02-26T02:34:37;3.00;99.90
42187;DHT22;27858;51.414;0.018;2023-02-26T02:37:13;2.90;99.90
42187;DHT22;27858;51.414;0.018;2023-02-26T02:39:50;2.90;99.90
42187;DHT22;27858;51.414;0.018;2023-02-26T02:44:58;3.00;99.90
42187;DHT22;27858;51.414;0.018;2023-02-26T02:47:28;3.10;99.90
42187;DHT22;27858;51.414;0.018;2023-02-26T02:50:46;2.90;99.90
42187;DHT22;27858;51.414;0.018;2023-02-26T02:52:51;3.00;99.90
42187;DHT22;27858;51.414;0.018;2023-02-26T02:55:35;2.90;99.90
42187;DHT22;27858;51.414;0.018;2023-02-26T02:58:05;3.10;99.90
42187;DHT22;27858;51.414;0.018;2023-02-26T03:00:36;3.00;99.90
42187;DHT22;27858;51.414;0.018;2023-02-26T03:03:14;2.90;99.90
42187;DHT22;27858;51.414;0.018;2023-02-26T03:05:42;3.00;99.90
42187;DHT22;27858;51.414;0.018;2023-02-26T03:08:12;3.00;99.90
42187;DHT22;27858;51.414;0.018;2023-02-26T03:10:40;2.80;99.90
42187;DHT22;27858;51.414;0.018;2023-02-26T03:13:15;2.90;99.90
42187;DHT22;27858;51.414;0.018;2023-02-26T03:23:33;2.80;99.90
42187;DHT22;27858;51.414;0.018;2023-02-26T03:26:15;2.90;99.90
42187;DHT22;27858;51.414;0.018;2023-02-26T03:29:01;2.90;99.90
42187;DHT22;27858;51.414;0.018;2023-02-26T03:31:34;3.00;99.90
42187;DHT22;27858;51.414;0.018;2023-02-26T03:37:07;3.20;99.90
42187;DHT22;27858;51.414;0.018;2023-02-26T03:39:42;3.20;99.90
42187;DHT22;27858;51.414;0.018;2023-02-26T03:42:21;3.20;99.90
42187;DHT22;27858;51.414;0.018;2023-02-26T03:45:04;3.40;99.90
42187;DHT22;27858;51.414;0.018;2023-02-26T03:47:32;3.40;99.90
42187;DHT22;27858;51.414;0.018;2023-02-26T03:50:35;3.30;99.90
42187;DHT22;27858;51.414;0.018;2023-02-26T03:53:05;3.30;99.90
42187;DHT22;27858;51.414;0.018;2023-02-26T03:58:03;3.50;99.90
42187;DHT22;27858;51.414;0.018;2023-02-26T04:00:31;3.50;99.90
42187;DHT22;27858;51.414;0.018;2023-02-26T04:05:51;3.60;99.90
42187;DHT22;27858;51.414;0.018;2023-02-26T04:08:22;3.70;99.90
42187;DHT22;27858;51.414;0.018;2023-02-26T04:10:56;3.70;99.90
42187;DHT22;27858;51.414;0.018;2023-02-26T04:13:24;3.70;99.90
42187;DHT22;27858;51.414;0.018;2023-02-26T04:15:51;3.80;99.90
42187;DHT22;27858;51.414;0.018;2023-02-26T04:18:18;3.60;99.90
42187;DHT22;27858;51.414;0.018;2023-02-26T04:20:44;3.60;99.90
42187;DHT22;27858;51.414;0.018;2023-02-26T04:23:11;3.70;99.90
42187;DHT22;27858;51.414;0.018;2023-02-26T04:25:38;3.60;99.90
42187;DHT22;27858;51.414;0.018;2023-02-26T04:28:05;3.80;99.90
42187;DHT22;27858;51.414;0.018;2023-02-26T04:30:32;3.70;99.90
42187;DHT22;27858;51.414;0.018;2023-02-26T04:32:58;3.90;99.90
42187;DHT22;27858;51.414;0.018;2023-02-26T04:35:25;3.90;99.90
42187;DHT22;27858;51.414;0.018;2023-02-26T04:37:52;3.90;99.90
42187;DHT22;27858;51.414;0.018;2023-02-26T04:40:19;3.90;99.90
42187;DHT22;27858;51.414;0.018;2023-02-26T04:42:45;3.80;99.90
42187;DHT22;27858;51.414;0.018;2023-02-26T04:45:13;3.90;99.90
42187;DHT22;27858;51.414;0.018;2023-02-26T04:47:40;3.90;99.90
42187;DHT22;27858;51.414;0.018;2023-02-26T04:50:07;3.90;99.90
42187;DHT22;27858;51.414;0.018;2023-02-26T04:52:34;3.80;99.90
42187;DHT22;27858;51.414;0.018;2023-02-26T04:55:01;3.80;99.90
42187;DHT22;27858;51.414;0.018;2023-02-26T04:57:27;3.80;99.90
42187;DHT22;27858;51.414;0.018;2023-02-26T04:59:54;3.80;99.90
42187;DHT22;27858;51.414;0.018;2023-02-26T05:02:21;3.90;99.90
42187;DHT22;27858;51.414;0.018;2023-02-26T05:04:48;3.90;99.90
42187;DHT22;27858;51.414;0.018;2023-02-26T05:07:15;3.70;99.90
42187;DHT22;27858;51.414;0.018;2023-02-26T05:09:42;3.80;99.90
42187;DHT22;27858;51.414;0.018;2023-02-26T05:12:08;3.70;99.90
42187;DHT22;27858;51.414;0.018;2023-02-26T05:14:35;3.80;99.90
42187;DHT22;27858;51.414;0.018;2023-02-26T05:17:02;3.70;99.90
42187;DHT22;27858;51.414;0.018;2023-02-26T05:19:28;3.50;99.90
42187;DHT22;27858;51.414;0.018;2023-02-26T05:21:55;3.60;99.90
42187;DHT22;27858;51.414;0.018;2023-02-26T05:24:22;3.70;99.90
42187;DHT22;27858;51.414;0.018;2023-02-26T05:26:49;3.70;99.90
42187;DHT22;27858;51.414;0.018;2023-02-26T05:29:15;3.60;99.90
42187;DHT22;27858;51.414;0.018;2023-02-26T05:31:42;3.50;99.90
42187;DHT22;27858;51.414;0.018;2023-02-26T05:34:09;3.60;99.90
42187;DHT22;27858;51.414;0.018;2023-02-26T05:36:36;3.70;99.90
42187;DHT22;27858;51.414;0.018;2023-02-26T05:39:02;3.60;99.90
42187;DHT22;27858;51.414;0.018;2023-02-26T05:41:29;3.60;99.90
42187;DHT22;27858;51.414;0.018;2023-02-26T05:43:56;3.80;99.90
42187;DHT22;27858;51.414;0.018;2023-02-26T05:46:23;3.70;99.90
42187;DHT22;27858;51.414;0.018;2023-02-26T05:48:50;3.80;99.90
42187;DHT22;27858;51.414;0.018;2023-02-26T05:51:17;3.80;99.90
42187;DHT22;27858;51.414;0.018;2023-02-26T05:53:44;3.70;99.90
42187;DHT22;27858;51.414;0.018;2023-02-26T05:56:11;3.60;99.90
42187;DHT22;27858;51.414;0.018;2023-02-26T05:58:38;3.50;99.90
42187;DHT22;27858;51.414;0.018;2023-02-26T06:01:05;3.60;99.90
42187;DHT22;27858;51.414;0.018;2023-02-26T06:03:32;3.40;99.90
42187;DHT22;27858;51.414;0.018;2023-02-26T06:05:58;3.50;99.90
42187;DHT22;27858;51.414;0.018;2023-02-26T06:08:25;3.40;99.90
42187;DHT22;27858;51.414;0.018;2023-02-26T06:10:52;3.40;99.90
42187;DHT22;27858;51.414;0.018;2023-02-26T06:13:19;3.40;99.90
42187;DHT22;27858;51.414;0.018;2023-02-26T06:15:48;3.40;99.90
42187;DHT22;27858;51.414;0.018;2023-02-26T06:18:16;3.40;99.90
42187;DHT22;27858;51.414;0.018;2023-02-26T06:20:43;3.20;99.90
42187;DHT22;27858;51.414;0.018;2023-02-26T06:23:09;3.20;99.90
42187;DHT22;27858;51.414;0.018;2023-02-26T06:25:36;3.20;99.90
42187;DHT22;27858;51.414;0.018;2023-02-26T06:28:03;3.30;99.90
42187;DHT22;27858;51.414;0.018;2023-02-26T06:30:29;3.30;99.90
42187;DHT22;27858;51.414;0.018;2023-02-26T06:32:56;3.50;99.90
42187;DHT22;27858;51.414;0.018;2023-02-26T06:35:23;3.40;99.90
42187;DHT22;27858;51.414;0.018;2023-02-26T06:37:50;3.40;99.90
42187;DHT22;27858;51.414;0.018;2023-02-26T06:40:17;3.40;99.90
42187;DHT22;27858;51.414;0.018;2023-02-26T06:42:44;3.50;99.90
42187;DHT22;27858;51.414;0.018;2023-02-26T06:45:11;3.60;99.90
42187;DHT22;27858;51.414;0.018;2023-02-26T06:47:38;3.40;99.90
42187;DHT22;27858;51.414;0.018;2023-02-26T06:50:05;3.50;99.90
42187;DHT22;27858;51.414;0.018;2023-02-26T06:52:32;3.30;99.90
42187;DHT22;27858;51.414;0.018;2023-02-26T06:54:59;3.30;99.90
42187;DHT22;27858;51.414;0.018;2023-02-26T06:57:26;3.20;99.90
42187;DHT22;27858;51.414;0.018;2023-02-26T06:59:53;3.10;99.90
42187;DHT22;27858;51.414;0.018;2023-02-26T07:02:21;3.10;99.90
42187;DHT22;27858;51.414;0.018;2023-02-26T07:04:48;3.10;99.90
42187;DHT22;27858;51.414;0.018;2023-02-26T07:07:15;3.20;99.90
42187;DHT22;27858;51.414;0.018;2023-02-26T07:09:42;3.10;99.90
42187;DHT22;27858;51.414;0.018;2023-02-26T07:12:11;3.20;99.90
42187;DHT22;27858;51.414;0.018;2023-02-26T07:14:38;3.20;99.90
42187;DHT22;27858;51.414;0.018;2023-02-26T07:17:05;3.30;99.90
42187;DHT22;27858;51.414;0.018;2023-02-26T07:19:32;3.30;99.90
42187;DHT22;27858;51.414;0.018;2023-02-26T07:21:59;3.30;99.90
42187;DHT22;27858;51.414;0.018;2023-02-26T07:24:25;3.40;99.90
42187;DHT22;27858;51.414;0.018;2023-02-26T07:26:52;3.30;99.90
42187;DHT22;27858;51.414;0.018;2023-02-26T07:29:19;3.40;99.90
42187;DHT22;27858;51.414;0.018;2023-02-26T07:31:45;3.50;99.90
42187;DHT22;27858;51.414;0.018;2023-02-26T07:34:12;3.50;99.90
42187;DHT22;27858;51.414;0.018;2023-02-26T07:36:39;3.60;99.90
42187;DHT22;27858;51.414;0.018;2023-02-26T07:39:06;3.50;99.90
42187;DHT22;27858;51.414;0.018;2023-02-26T07:41:33;3.70;99.90
42187;DHT22;27858;51.414;0.018;2023-02-26T07:43:59;3.60;99.90
42187;DHT22;27858;51.414;0.018;2023-02-26T07:46:27;3.70;99.90
42187;DHT22;27858;51.414;0.018;2023-02-26T07:48:54;3.80;99.90
42187;DHT22;27858;51.414;0.018;2023-02-26T07:51:21;3.70;99.90
42187;DHT22;27858;51.414;0.018;2023-02-26T07:53:47;3.70;99.90
42187;DHT22;27858;51.414;0.018;2023-02-26T07:56:14;3.60;99.90
42187;DHT22;27858;51.414;0.018;2023-02-26T07:58:41;3.60;99.90
42187;DHT22;27858;51.414;0.018;2023-02-26T08:01:08;3.70;99.90
42187;DHT22;27858;51.414;0.018;2023-02-26T08:03:35;3.70;99.90
42187;DHT22;27858;51.414;0.018;2023-02-26T08:06:02;3.60;99.90
42187;DHT22;27858;51.414;0.018;2023-02-26T08:08:30;3.70;99.90
42187;DHT22;27858;51.414;0.018;2023-02-26T08:10:59;3.80;99.90
42187;DHT22;27858;51.414;0.018;2023-02-26T08:13:26;3.70;99.90
42187;DHT22;27858;51.414;0.018;2023-02-26T08:15:53;3.90;99.90
42187;DHT22;27858;51.414;0.018;2023-02-26T08:18:20;3.90;99.90
42187;DHT22;27858;51.414;0.018;2023-02-26T08:20:46;4.00;99.90
42187;DHT22;27858;51.414;0.018;2023-02-26T08:23:16;4.10;99.90
42187;DHT22;27858;51.414;0.018;2023-02-26T08:25:43;4.00;99.90
42187;DHT22;27858;51.414;0.018;2023-02-26T08:28:11;4.10;99.90
42187;DHT22;27858;51.414;0.018;2023-02-26T08:30:38;4.20;99.90
42187;DHT22;27858;51.414;0.018;2023-02-26T08:33:05;4.20;96.50
42187;DHT22;27858;51.414;0.018;2023-02-26T08:35:32;4.20;92.90
42187;DHT22;27858;51.414;0.018;2023-02-26T08:37:59;4.40;92.00
42187;DHT22;27858;51.414;0.018;2023-02-26T08:40:25;4.30;85.40
42187;DHT22;27858;51.414;0.018;2023-02-26T08:42:52;4.50;70.00
42187;DHT22;27858;51.414;0.018;2023-02-26T08:45:19;4.50;57.70
42187;DHT22;27858;51.414;0.018;2023-02-26T08:47:46;4.50;44.80
42187;DHT22;27858;51.414;0.018;2023-02-26T08:50:23;4.60;36.80
42187;DHT22;27858;51.414;0.018;2023-02-26T08:52:50;4.70;28.10
42187;DHT22;27858;51.414;0.018;2023-02-26T08:55:17;4.80;22.60
42187;DHT22;27858;51.414;0.018;2023-02-26T08:57:44;4.80;16.10
42187;DHT22;27858;51.414;0.018;2023-02-26T09:00:11;4.90;10.90
42187;DHT22;27858;51.414;0.018;2023-02-26T09:02:38;4.80;5.50
42187;DHT22;27858;51.414;0.018;2023-02-26T09:05:05;5.00;1.00
42187;DHT22;27858;51.414;0.018;2023-02-26T09:07:32;5.00;1.00
42187;DHT22;27858;51.414;0.018;2023-02-26T09:09:59;5.00;1.00
42187;DHT22;27858;51.414;0.018;2023-02-26T09:12:26;5.00;1.00
42187;DHT22;27858;51.414;0.018;2023-02-26T09:14:53;5.10;1.00
42187;DHT22;27858;51.414;0.018;2023-02-26T09:17:20;5.20;1.00
42187;DHT22;27858;51.414;0.018;2023-02-26T09:19:46;5.20;1.00
42187;DHT22;27858;51.414;0.018;2023-02-26T09:22:13;5.30;1.00
42187;DHT22;27858;51.414;0.018;2023-02-26T09:24:40;5.30;1.00
42187;DHT22;27858;51.414;0.018;2023-02-26T09:27:07;5.40;1.00
42187;DHT22;27858;51.414;0.018;2023-02-26T09:29:34;5.40;1.00
42187;DHT22;27858;51.414;0.018;2023-02-26T09:32:01;5.50;1.00
42187;DHT22;27858;51.414;0.018;2023-02-26T09:34:28;5.60;1.00
42187;DHT22;27858;51.414;0.018;2023-02-26T09:36:54;5.60;1.00
42187;DHT22;27858;51.414;0.018;2023-02-26T09:39:21;5.70;99.90
42187;DHT22;27858;51.414;0.018;2023-02-26T09:41:53;5.70;99.90
42187;DHT22;27858;51.414;0.018;2023-02-26T09:44:31;5.80;99.90
42187;DHT22;27858;51.414;0.018;2023-02-26T09:54:55;5.90;99.90
42187;DHT22;27858;51.414;0.018;2023-02-26T09:59:57;5.90;99.90
42187;DHT22;27858;51.414;0.018;2023-02-26T10:02:39;5.90;99.90
42187;DHT22;27858;51.414;0.018;2023-02-26T10:05:29;6.00;99.90
42187;DHT22;27858;51.414;0.018;2023-02-26T10:08:06;6.00;99.90
42187;DHT22;27858;51.414;0.018;2023-02-26T10:16:26;6.20;99.90
42187;DHT22;27858;51.414;0.018;2023-02-26T10:18:57;6.20;99.90
42187;DHT22;27858;51.414;0.018;2023-02-26T10:24:01;6.30;99.90
42187;DHT22;27858;51.414;0.018;2023-02-26T10:26:38;6.30;99.90
42187;DHT22;27858;51.414;0.018;2023-02-26T10:29:31;6.40;99.90
42187;DHT22;27858;51.414;0.018;2023-02-26T10:34:57;6.40;99.90
42187;DHT22;27858;51.414;0.018;2023-02-26T10:37:46;6.50;99.90
42187;DHT22;27858;51.414;0.018;2023-02-26T10:40:18;6.50;99.90
42187;DHT22;27858;51.414;0.018;2023-02-26T10:43:18;6.60;99.90
42187;DHT22;27858;51.414;0.018;2023-02-26T10:48:54;6.80;99.90
42187;DHT22;27858;51.414;0.018;2023-02-26T10:51:28;6.70;99.90
42187;DHT22;27858;51.414;0.018;2023-02-26T10:56:52;6.60;99.90
42187;DHT22;27858;51.414;0.018;2023-02-26T10:59:19;6.70;99.90
42187;DHT22;27858;51.414;0.018;2023-02-26T11:01:46;6.80;99.90
42187;DHT22;27858;51.414;0.018;2023-02-26T11:04:16;6.80;99.90
42187;DHT22;27858;51.414;0.018;2023-02-26T11:06:53;6.90;99.90
42187;DHT22;27858;51.414;0.018;2023-02-26T11:09:35;7.00;99.90
42187;DHT22;27858;51.414;0.018;2023-02-26T11:12:15;7.10;99.90
42187;DHT22;27858;51.414;0.018;2023-02-26T11:14:46;7.20;99.90
42187;DHT22;27858;51.414;0.018;2023-02-26T11:17:23;7.30;99.90
42187;DHT22;27858;51.414;0.018;2023-02-26T11:20:12;7.40;99.90
42187;DHT22;27858;51.414;0.018;2023-02-26T11:22:47;7.60;99.90
42187;DHT22;27858;51.414;0.018;2023-02-26T11:25:18;7.70;99.90
42187;DHT22;27858;51.414;0.018;2023-02-26T11:27:49;7.80;99.90
42187;DHT22;27858;51.414;0.018;2023-02-26T11:30:20;7.80;99.90
42187;DHT22;27858;51.414;0.018;2023-02-26T11:32:52;7.80;99.90
42187;DHT22;27858;51.414;0.018;2023-02-26T11:35:22;7.80;99.90
42187;DHT22;27858;51.414;0.018;2023-02-26T11:37:55;7.70;99.90
42187;DHT22;27858;51.414;0.018;2023-02-26T11:40:36;7.70;99.90
42187;DHT22;27858;51.414;0.018;2023-02-26T11:43:10;7.70;99.90
42187;DHT22;27858;51.414;0.018;2023-02-26T11:45:41;7.60;99.90
42187;DHT22;27858;51.414;0.018;2023-02-26T11:48:21;7.70;99.90
42187;DHT22;27858;51.414;0.018;2023-02-26T11:50:54;7.70;99.90
42187;DHT22;27858;51.414;0.018;2023-02-26T11:53:42;7.70;99.90
42187;DHT22;27858;51.414;0.018;2023-02-26T11:56:14;7.90;99.90
42187;DHT22;27858;51.414;0.018;2023-02-26T11:58:44;8.00;99.90
42187;DHT22;27858;51.414;0.018;2023-02-26T12:01:13;8.10;99.90
42187;DHT22;27858;51.414;0.018;2023-02-26T12:03:45;8.00;99.90
42187;DHT22;27858;51.414;0.018;2023-02-26T12:06:17;8.10;99.90
42187;DHT22;27858;51.414;0.018;2023-02-26T12:08:45;8.20;99.90
42187;DHT22;27858;51.414;0.018;2023-02-26T12:14:12;8.30;99.90
42187;DHT22;27858;51.414;0.018;2023-02-26T12:19:20;8.30;99.90
42187;DHT22;27858;51.414;0.018;2023-02-26T12:27:25;8.50;99.90
42187;DHT22;27858;51.414;0.018;2023-02-26T12:41:30;8.40;99.90
42187;DHT22;27858;51.414;0.018;2023-02-26T12:44:06;8.40;99.90
42187;DHT22;27858;51.414;0.018;2023-02-26T12:46:58;8.40;99.90
42187;DHT22;27858;51.414;0.018;2023-02-26T12:52:55;7.90;99.90
42187;DHT22;27858;51.414;0.018;2023-02-26T13:01:44;7.30;99.90
42187;DHT22;27858;51.414;0.018;2023-02-26T13:10:07;7.20;99.90
42187;DHT22;27858;51.414;0.018;2023-02-26T13:21:05;7.20;99.90
42187;DHT22;27858;51.414;0.018;2023-02-26T13:23:42;7.20;99.90
42187;DHT22;27858;51.414;0.018;2023-02-26T13:26:13;7.10;99.90
42187;DHT22;27858;51.414;0.018;2023-02-26T13:31:49;7.10;99.90
42187;DHT22;27858;51.414;0.018;2023-02-26T13:34:58;7.10;99.90
42187;DHT22;27858;51.414;0.018;2023-02-26T13:37:42;7.20;99.90
42187;DHT22;27858;51.414;0.018;2023-02-26T13:43:31;7.30;99.90
42187;DHT22;27858;51.414;0.018;2023-02-26T13:51:42;7.50;99.90
42187;DHT22;27858;51.414;0.018;2023-02-26T13:57:04;7.70;99.90
42187;DHT22;27858;51.414;0.018;2023-02-26T14:04:59;7.80;99.90
42187;DHT22;27858;51.414;0.018;2023-02-26T14:07:51;7.80;99.90
42187;DHT22;27858;51.414;0.018;2023-02-26T14:10:31;7.80;99.90
42187;DHT22;27858;51.414;0.018;2023-02-26T14:13:16;7.80;99.90
42187;DHT22;27858;51.414;0.018;2023-02-26T14:16:10;7.70;99.90
42187;DHT22;27858;51.414;0.018;2023-02-26T14:26:32;7.60;99.90
42187;DHT22;27858;51.414;0.018;2023-02-26T14:29:12;7.60;99.90
42187;DHT22;27858;51.414;0.018;2023-02-26T14:34:24;7.50;99.90
42187;DHT22;27858;51.414;0.018;2023-02-26T14:36:54;7.40;99.90
42187;DHT22;27858;51.414;0.018;2023-02-26T14:39:41;7.30;99.90
42187;DHT22;27858;51.414;0.018;2023-02-26T14:42:21;7.30;99.90
42187;DHT22;27858;51.414;0.018;2023-02-26T14:44:51;7.30;99.90
42187;DHT22;27858;51.414;0.018;2023-02-26T14:47:20;7.30;99.90
42187;DHT22;27858;51.414;0.018;2023-02-26T14:49:48;7.30;99.90
42187;DHT22;27858;51.414;0.018;2023-02-26T14:55:17;7.30;99.90
42187;DHT22;27858;51.414;0.018;2023-02-26T14:58:02;7.30;99.90
42187;DHT22;27858;51.414;0.018;2023-02-26T15:11:56;7.20;99.90
42187;DHT22;27858;51.414;0.018;2023-02-26T15:14:44;7.20;99.90
42187;DHT22;27858;51.414;0.018;2023-02-26T15:17:27;7.20;99.90
42187;DHT22;27858;51.414;0.018;2023-02-26T15:20:03;7.20;99.90
42187;DHT22;27858;51.414;0.018;2023-02-26T15:22:51;7.30;99.90
42187;DHT22;27858;51.414;0.018;2023-02-26T15:25:38;7.40;99.90
42187;DHT22;27858;51.414;0.018;2023-02-26T15:28:12;7.40;99.90
42187;DHT22;27858;51.414;0.018;2023-02-26T15:30:41;7.50;99.90
42187;DHT22;27858;51.414;0.018;2023-02-26T15:33:12;7.60;99.90
42187;DHT22;27858;51.414;0.018;2023-02-26T15:35:42;7.80;99.90
42187;DHT22;27858;51.414;0.018;2023-02-26T15:38:09;7.90;99.90
42187;DHT22;27858;51.414;0.018;2023-02-26T15:40:36;8.00;99.90
42187;DHT22;27858;51.414;0.018;2023-02-26T15:43:06;8.00;99.90
42187;DHT22;27858;51.414;0.018;2023-02-26T15:45:40;8.10;99.90
42187;DHT22;27858;51.414;0.018;2023-02-26T15:50:43;8.20;99.90
42187;DHT22;27858;51.414;0.018;2023-02-26T15:55:57;8.70;99.90
42187;DHT22;27858;51.414;0.018;2023-02-26T15:58:41;8.60;99.90
42187;DHT22;27858;51.414;0.018;2023-02-26T16:01:30;8.70;99.90
42187;DHT22;27858;51.414;0.018;2023-02-26T16:04:00;8.50;99.90
42187;DHT22;27858;51.414;0.018;2023-02-26T16:06:31;8.50;99.90
42187;DHT22;27858;51.414;0.018;2023-02-26T16:09:01;8.30;99.90
42187;DHT22;27858;51.414;0.018;2023-02-26T16:11:36;8.10;99.90
42187;DHT22;27858;51.414;0.018;2023-02-26T16:14:05;7.90;99.90
42187;DHT22;27858;51.414;0.018;2023-02-26T16:16:45;7.80;99.90
42187;DHT22;27858;51.414;0.018;2023-02-26T16:19:35;7.70;99.90
42187;DHT22;27858;51.414;0.018;2023-02-26T16:24:38;8.20;99.90
42187;DHT22;27858;51.414;0.018;2023-02-26T16:27:08;8.30;99.90
42187;DHT22;27858;51.414;0.018;2023-02-26T16:29:46;8.20;99.90
42187;DHT22;27858;51.414;0.018;2023-02-26T16:32:14;8.10;99.90
42187;DHT22;27858;51.414;0.018;2023-02-26T16:34:51;8.00;99.90
42187;DHT22;27858;51.414;0.018;2023-02-26T16:40:21;7.90;99.90
42187;DHT22;27858;51.414;0.018;2023-02-26T16:48:06;7.60;99.90
42187;DHT22;27858;51.414;0.018;2023-02-26T16:50:36;7.60;99.90
42187;DHT22;27858;51.414;0.018;2023-02-26T16:53:04;7.60;99.90
42187;DHT22;27858;51.414;0.018;2023-02-26T16:55:35;7.50;99.90
42187;DHT22;27858;51.414;0.018;2023-02-26T16:58:04;7.40;99.90
42187;DHT22;27858;51.414;0.018;2023-02-26T17:00:33;7.40;99.90
42187;DHT22;27858;51.414;0.018;2023-02-26T17:03:11;7.40;99.90
42187;DHT22;27858;51.414;0.018;2023-02-26T17:05:41;7.30;99.90
42187;DHT22;27858;51.414;0.018;2023-02-26T17:08:17;7.30;99.90
42187;DHT22;27858;51.414;0.018;2023-02-26T17:10:50;7.30;99.90
42187;DHT22;27858;51.414;0.018;2023-02-26T17:13:24;7.20;99.90
42187;DHT22;27858;51.414;0.018;2023-02-26T17:15:52;7.20;99.90
42187;DHT22;27858;51.414;0.018;2023-02-26T17:18:20;7.20;99.90
42187;DHT22;27858;51.414;0.018;2023-02-26T17:20:47;7.10;99.90
42187;DHT22;27858;51.414;0.018;2023-02-26T17:23:15;7.10;99.90
42187;DHT22;27858;51.414;0.018;2023-02-26T17:25:48;7.00;99.90
42187;DHT22;27858;51.414;0.018;2023-02-26T17:28:28;7.00;99.90
42187;DHT22;27858;51.414;0.018;2023-02-26T17:30:57;6.90;99.90
42187;DHT22;27858;51.414;0.018;2023-02-26T17:33:23;6.80;99.90
42187;DHT22;27858;51.414;0.018;2023-02-26T17:35:51;6.70;99.90
42187;DHT22;27858;51.414;0.018;2023-02-26T17:38:21;6.60;99.90
42187;DHT22;27858;51.414;0.018;2023-02-26T17:40:48;6.50;99.90
42187;DHT22;27858;51.414;0.018;2023-02-26T17:43:22;6.40;99.90
42187;DHT22;27858;51.414;0.018;2023-02-26T17:45:50;6.40;99.90
42187;DHT22;27858;51.414;0.018;2023-02-26T17:48:17;6.30;99.90
42187;DHT22;27858;51.414;0.018;2023-02-26T17:50:55;6.20;99.90
42187;DHT22;27858;51.414;0.018;2023-02-26T17:53:24;6.20;99.90
42187;DHT22;27858;51.414;0.018;2023-02-26T17:56:00;6.10;99.90
42187;DHT22;27858;51.414;0.018;2023-02-26T17:58:32;6.00;99.90
42187;DHT22;27858;51.414;0.018;2023-02-26T18:01:00;6.00;99.90
42187;DHT22;27858;51.414;0.018;2023-02-26T18:03:29;5.90;99.90
42187;DHT22;27858;51.414;0.018;2023-02-26T18:05:56;5.90;99.90
42187;DHT22;27858;51.414;0.018;2023-02-26T18:08:29;5.80;99.90
42187;DHT22;27858;51.414;0.018;2023-02-26T18:10:59;5.80;99.90
42187;DHT22;27858;51.414;0.018;2023-02-26T18:13:27;5.80;99.90
42187;DHT22;27858;51.414;0.018;2023-02-26T18:15:55;5.70;99.90
42187;DHT22;27858;51.414;0.018;2023-02-26T18:18:24;5.70;99.90
42187;DHT22;27858;51.414;0.018;2023-02-26T18:20:52;5.60;99.90
42187;DHT22;27858;51.414;0.018;2023-02-26T18:23:19;5.60;99.90
42187;DHT22;27858;51.414;0.018;2023-02-26T18:25:48;5.50;99.90
42187;DHT22;27858;51.414;0.018;2023-02-26T18:28:25;5.50;99.90
42187;DHT22;27858;51.414;0.018;2023-02-26T18:30:54;5.50;99.90
42187;DHT22;27858;51.414;0.018;2023-02-26T18:33:22;5.40;99.90
42187;DHT22;27858;51.414;0.018;2023-02-26T18:35:53;5.30;99.90
42187;DHT22;27858;51.414;0.018;2023-02-26T18:38:23;5.30;99.90
42187;DHT22;27858;51.414;0.018;2023-02-26T18:40:51;5.30;99.90
42187;DHT22;27858;51.414;0.018;2023-02-26T18:43:21;5.30;99.90
42187;DHT22;27858;51.414;0.018;2023-02-26T18:45:49;5.30;99.90
42187;DHT22;27858;51.414;0.018;2023-02-26T18:48:19;5.20;99.90
42187;DHT22;27858;51.414;0.018;2023-02-26T18:50:47;5.10;99.90
42187;DHT22;27858;51.414;0.018;2023-02-26T18:53:14;5.10;99.90
42187;DHT22;27858;51.414;0.018;2023-02-26T18:55:43;5.00;99.90
42187;DHT22;27858;51.414;0.018;2023-02-26T18:58:10;5.00;99.90
42187;DHT22;27858;51.414;0.018;2023-02-26T19:00:37;5.00;99.90
42187;DHT22;27858;51.414;0.018;2023-02-26T19:03:04;5.00;99.90
42187;DHT22;27858;51.414;0.018;2023-02-26T19:05:30;5.00;99.90
42187;DHT22;27858;51.414;0.018;2023-02-26T19:07:57;5.00;99.90
42187;DHT22;27858;51.414;0.018;2023-02-26T19:10:26;4.90;99.90
42187;DHT22;27858;51.414;0.018;2023-02-26T19:12:58;4.90;99.90